sensor_id;sensor_type;location;lat;lon;timestamp;P1;durP1;ratioP1;P2;durP2;ratioP2
66085;SDS011;52868;49.758;9.586;2023-03-14T00:18:39;0.60;;;0.60;;
66085;SDS011;52868;49.758;9.586;2023-03-14T00:21:05;0.90;;;0.68;;
66085;SDS011;52868;49.758;9.586;2023-03-14T00:23:33;1.73;;;0.70;;
66085;SDS011;52868;49.758;9.586;2023-03-14T00:26:01;1.20;;;0.60;;
66085;SDS011;52868;49.758;9.586;2023-03-14T00:28:28;0.60;;;0.52;;
66085;SDS011;52868;49.758;9.586;2023-03-14T00:30:54;0.68;;;0.60;;
66085;SDS011;52868;49.758;9.586;2023-03-14T00:33:20;0.70;;;0.70;;
66085;SDS011;52868;49.758;9.586;2023-03-14T00:35:56;0.70;;;0.55;;
66085;SDS011;52868;49.758;9.586;2023-03-14T00:38:23;0.50;;;0.50;;
66085;SDS011;52868;49.758;9.586;2023-03-14T00:40:49;0.60;;;0.60;;
66085;SDS011;52868;49.758;9.586;2023-03-14T00:43:16;0.82;;;0.52;;
66085;SDS011;52868;49.758;9.586;2023-03-14T00:45:42;1.48;;;0.65;;
66085;SDS011;52868;49.758;9.586;2023-03-14T00:48:07;0.75;;;0.57;;
66085;SDS011;52868;49.758;9.586;2023-03-14T00:50:33;1.13;;;0.60;;
66085;SDS011;52868;49.758;9.586;2023-03-14T00:52:58;0.63;;;0.55;;
66085;SDS011;52868;49.758;9.586;2023-03-14T00:55:24;0.82;;;0.57;;
66085;SDS011;52868;49.758;9.586;2023-03-14T00:57:50;1.23;;;0.70;;
66085;SDS011;52868;49.758;9.586;2023-03-14T01:00:16;0.82;;;0.60;;
66085;SDS011;52868;49.758;9.586;2023-03-14T01:02:42;0.60;;;0.60;;
66085;SDS011;52868;49.758;9.586;2023-03-14T01:05:08;0.55;;;0.52;;
66085;SDS011;52868;49.758;9.586;2023-03-14T01:07:35;1.52;;;0.70;;
66085;SDS011;52868;49.758;9.586;2023-03-14T01:10:01;0.77;;;0.60;;
66085;SDS011;52868;49.758;9.586;2023-03-14T01:12:28;0.50;;;0.50;;
66085;SDS011;52868;49.758;9.586;2023-03-14T01:14:53;0.50;;;0.50;;
66085;SDS011;52868;49.758;9.586;2023-03-14T01:17:19;1.65;;;0.52;;
66085;SDS011;52868;49.758;9.586;2023-03-14T01:19:45;1.23;;;0.60;;
66085;SDS011;52868;49.758;9.586;2023-03-14T01:22:10;1.75;;;0.57;;
66085;SDS011;52868;49.758;9.586;2023-03-14T01:24:36;6.13;;;0.95;;
66085;SDS011;52868;49.758;9.586;2023-03-14T01:27:02;1.75;;;0.52;;
66085;SDS011;52868;49.758;9.586;2023-03-14T01:29:28;1.08;;;0.60;;
66085;SDS011;52868;49.758;9.586;2023-03-14T01:31:54;0.70;;;0.60;;
66085;SDS011;52868;49.758;9.586;2023-03-14T01:34:20;0.65;;;0.60;;
66085;SDS011;52868;49.758;9.586;2023-03-14T01:36:45;0.50;;;0.50;;
66085;SDS011;52868;49.758;9.586;2023-03-14T01:39:11;4.43;;;0.65;;
66085;SDS011;52868;49.758;9.586;2023-03-14T01:41:38;1.70;;;0.50;;
66085;SDS011;52868;49.758;9.586;2023-03-14T01:44:05;4.15;;;0.70;;
66085;SDS011;52868;49.758;9.586;2023-03-14T01:49:04;0.55;;;0.50;;
66085;SDS011;52868;49.758;9.586;2023-03-14T01:54:20;1.02;;;0.63;;
66085;SDS011;52868;49.758;9.586;2023-03-14T01:56:52;0.63;;;0.63;;
66085;SDS011;52868;49.758;9.586;2023-03-14T01:59:23;1.20;;;0.52;;
66085;SDS011;52868;49.758;9.586;2023-03-14T02:01:49;1.83;;;0.70;;
66085;SDS011;52868;49.758;9.586;2023-03-14T02:04:18;2.75;;;0.77;;
66085;SDS011;52868;49.758;9.586;2023-03-14T02:07:28;0.68;;;0.65;;
66085;SDS011;52868;49.758;9.586;2023-03-14T02:09:39;0.98;;;0.73;;
66085;SDS011;52868;49.758;9.586;2023-03-14T02:12:11;0.52;;;0.50;;
66085;SDS011;52868;49.758;9.586;2023-03-14T02:14:40;2.72;;;0.52;;
66085;SDS011;52868;49.758;9.586;2023-03-14T02:17:07;2.70;;;0.68;;
66085;SDS011;52868;49.758;9.586;2023-03-14T02:22:37;4.78;;;0.60;;
66085;SDS011;52868;49.758;9.586;2023-03-14T02:25:12;2.03;;;0.60;;
66085;SDS011;52868;49.758;9.586;2023-03-14T02:27:58;2.08;;;0.63;;
66085;SDS011;52868;49.758;9.586;2023-03-14T02:30:26;0.98;;;0.73;;
66085;SDS011;52868;49.758;9.586;2023-03-14T02:32:55;0.43;;;0.40;;
66085;SDS011;52868;49.758;9.586;2023-03-14T02:35:26;0.60;;;0.60;;
66085;SDS011;52868;49.758;9.586;2023-03-14T02:40:24;0.40;;;0.40;;
66085;SDS011;52868;49.758;9.586;2023-03-14T02:42:49;0.40;;;0.40;;
66085;SDS011;52868;49.758;9.586;2023-03-14T02:47:44;3.42;;;0.60;;
66085;SDS011;52868;49.758;9.586;2023-03-14T02:50:20;0.85;;;0.57;;
66085;SDS011;52868;49.758;9.586;2023-03-14T02:52:49;0.98;;;0.68;;
66085;SDS011;52868;49.758;9.586;2023-03-14T02:55:19;2.63;;;0.60;;
66085;SDS011;52868;49.758;9.586;2023-03-14T02:57:46;2.33;;;0.70;;
66085;SDS011;52868;49.758;9.586;2023-03-14T03:00:11;0.60;;;0.60;;
66085;SDS011;52868;49.758;9.586;2023-03-14T03:02:37;2.92;;;0.70;;
66085;SDS011;52868;49.758;9.586;2023-03-14T03:05:06;1.50;;;0.70;;
66085;SDS011;52868;49.758;9.586;2023-03-14T03:07:32;2.75;;;0.73;;
66085;SDS011;52868;49.758;9.586;2023-03-14T03:09:58;0.68;;;0.63;;
66085;SDS011;52868;49.758;9.586;2023-03-14T03:12:23;3.92;;;0.82;;
66085;SDS011;52868;49.758;9.586;2023-03-14T03:14:49;0.98;;;0.60;;
66085;SDS011;52868;49.758;9.586;2023-03-14T03:17:14;1.40;;;0.85;;
66085;SDS011;52868;49.758;9.586;2023-03-14T03:19:40;1.30;;;0.75;;
66085;SDS011;52868;49.758;9.586;2023-03-14T03:22:06;2.78;;;0.80;;
66085;SDS011;52868;49.758;9.586;2023-03-14T03:24:31;2.20;;;0.80;;
66085;SDS011;52868;49.758;9.586;2023-03-14T03:26:57;4.82;;;0.95;;
66085;SDS011;52868;49.758;9.586;2023-03-14T03:29:23;4.35;;;0.68;;
66085;SDS011;52868;49.758;9.586;2023-03-14T03:31:48;0.77;;;0.70;;
66085;SDS011;52868;49.758;9.586;2023-03-14T03:34:14;3.03;;;0.68;;
66085;SDS011;52868;49.758;9.586;2023-03-14T03:36:40;0.65;;;0.65;;
66085;SDS011;52868;49.758;9.586;2023-03-14T03:39:06;3.22;;;0.90;;
66085;SDS011;52868;49.758;9.586;2023-03-14T03:41:32;4.93;;;1.17;;
66085;SDS011;52868;49.758;9.586;2023-03-14T03:43:58;2.38;;;1.00;;
66085;SDS011;52868;49.758;9.586;2023-03-14T03:46:23;4.50;;;1.30;;
66085;SDS011;52868;49.758;9.586;2023-03-14T03:48:56;4.03;;;1.10;;
66085;SDS011;52868;49.758;9.586;2023-03-14T03:51:22;0.95;;;0.90;;
66085;SDS011;52868;49.758;9.586;2023-03-14T03:53:48;4.20;;;1.00;;
66085;SDS011;52868;49.758;9.586;2023-03-14T03:56:14;2.47;;;1.23;;
66085;SDS011;52868;49.758;9.586;2023-03-14T03:58:39;1.88;;;1.10;;
66085;SDS011;52868;49.758;9.586;2023-03-14T04:01:07;12.88;;;1.10;;
66085;SDS011;52868;49.758;9.586;2023-03-14T04:03:33;2.70;;;0.90;;
66085;SDS011;52868;49.758;9.586;2023-03-14T04:06:04;1.73;;;1.20;;
66085;SDS011;52868;49.758;9.586;2023-03-14T04:08:31;2.60;;;1.23;;
66085;SDS011;52868;49.758;9.586;2023-03-14T04:10:57;2.25;;;1.00;;
66085;SDS011;52868;49.758;9.586;2023-03-14T04:13:23;4.00;;;1.15;;
66085;SDS011;52868;49.758;9.586;2023-03-14T04:15:50;3.25;;;1.00;;
66085;SDS011;52868;49.758;9.586;2023-03-14T04:18:15;1.48;;;1.08;;
66085;SDS011;52868;49.758;9.586;2023-03-14T04:20:41;4.53;;;0.93;;
66085;SDS011;52868;49.758;9.586;2023-03-14T04:23:07;4.25;;;0.85;;
66085;SDS011;52868;49.758;9.586;2023-03-14T04:25:32;2.28;;;1.23;;
66085;SDS011;52868;49.758;9.586;2023-03-14T04:27:58;1.85;;;0.90;;
66085;SDS011;52868;49.758;9.586;2023-03-14T04:30:23;0.80;;;0.80;;
66085;SDS011;52868;49.758;9.586;2023-03-14T04:32:49;1.85;;;1.00;;
66085;SDS011;52868;49.758;9.586;2023-03-14T04:35:15;1.98;;;0.90;;
66085;SDS011;52868;49.758;9.586;2023-03-14T04:37:40;2.60;;;1.10;;
66085;SDS011;52868;49.758;9.586;2023-03-14T04:40:08;1.15;;;0.93;;
66085;SDS011;52868;49.758;9.586;2023-03-14T04:42:35;2.95;;;1.00;;
66085;SDS011;52868;49.758;9.586;2023-03-14T04:45:00;1.30;;;0.77;;
66085;SDS011;52868;49.758;9.586;2023-03-14T04:47:26;4.10;;;1.00;;
66085;SDS011;52868;49.758;9.586;2023-03-14T04:49:52;4.45;;;1.00;;
66085;SDS011;52868;49.758;9.586;2023-03-14T04:52:18;1.10;;;0.70;;
66085;SDS011;52868;49.758;9.586;2023-03-14T04:54:43;4.93;;;0.85;;
66085;SDS011;52868;49.758;9.586;2023-03-14T04:57:09;1.33;;;0.77;;
66085;SDS011;52868;49.758;9.586;2023-03-14T04:59:35;3.42;;;0.90;;
66085;SDS011;52868;49.758;9.586;2023-03-14T05:02:00;2.25;;;1.10;;
66085;SDS011;52868;49.758;9.586;2023-03-14T05:04:26;2.78;;;0.82;;
66085;SDS011;52868;49.758;9.586;2023-03-14T05:06:51;2.10;;;0.88;;
66085;SDS011;52868;49.758;9.586;2023-03-14T05:09:17;1.30;;;0.80;;
66085;SDS011;52868;49.758;9.586;2023-03-14T05:11:43;3.25;;;0.95;;
66085;SDS011;52868;49.758;9.586;2023-03-14T05:14:08;3.22;;;1.10;;
66085;SDS011;52868;49.758;9.586;2023-03-14T05:16:34;4.50;;;0.93;;
66085;SDS011;52868;49.758;9.586;2023-03-14T05:18:59;1.45;;;0.75;;
66085;SDS011;52868;49.758;9.586;2023-03-14T05:21:26;4.43;;;0.68;;
66085;SDS011;52868;49.758;9.586;2023-03-14T05:23:52;3.83;;;0.63;;
66085;SDS011;52868;49.758;9.586;2023-03-14T05:26:18;2.20;;;0.70;;
66085;SDS011;52868;49.758;9.586;2023-03-14T05:28:43;0.70;;;0.70;;
66085;SDS011;52868;49.758;9.586;2023-03-14T05:31:09;4.13;;;0.70;;
66085;SDS011;52868;49.758;9.586;2023-03-14T05:33:35;1.30;;;0.70;;
66085;SDS011;52868;49.758;9.586;2023-03-14T05:36:00;2.58;;;0.60;;
66085;SDS011;52868;49.758;9.586;2023-03-14T05:38:26;5.28;;;0.75;;
66085;SDS011;52868;49.758;9.586;2023-03-14T05:40:51;1.30;;;0.65;;
66085;SDS011;52868;49.758;9.586;2023-03-14T05:43:17;1.17;;;0.68;;
66085;SDS011;52868;49.758;9.586;2023-03-14T05:45:43;0.50;;;0.50;;
66085;SDS011;52868;49.758;9.586;2023-03-14T05:48:10;0.60;;;0.60;;
66085;SDS011;52868;49.758;9.586;2023-03-14T05:50:35;0.68;;;0.55;;
66085;SDS011;52868;49.758;9.586;2023-03-14T05:53:01;3.10;;;0.70;;
66085;SDS011;52868;49.758;9.586;2023-03-14T05:55:27;1.50;;;0.60;;
66085;SDS011;52868;49.758;9.586;2023-03-14T05:57:53;1.85;;;0.68;;
66085;SDS011;52868;49.758;9.586;2023-03-14T06:00:19;0.60;;;0.60;;
66085;SDS011;52868;49.758;9.586;2023-03-14T06:02:45;0.85;;;0.80;;
66085;SDS011;52868;49.758;9.586;2023-03-14T06:05:11;3.00;;;0.75;;
66085;SDS011;52868;49.758;9.586;2023-03-14T06:07:37;3.35;;;0.70;;
66085;SDS011;52868;49.758;9.586;2023-03-14T06:10:03;1.08;;;0.60;;
66085;SDS011;52868;49.758;9.586;2023-03-14T06:12:29;0.50;;;0.50;;
66085;SDS011;52868;49.758;9.586;2023-03-14T06:14:54;1.50;;;0.70;;
66085;SDS011;52868;49.758;9.586;2023-03-14T06:17:20;2.47;;;0.70;;
66085;SDS011;52868;49.758;9.586;2023-03-14T06:19:46;3.30;;;0.88;;
66085;SDS011;52868;49.758;9.586;2023-03-14T06:28:55;5.20;;;1.30;;
66085;SDS011;52868;49.758;9.586;2023-03-14T06:31:21;3.47;;;0.93;;
66085;SDS011;52868;49.758;9.586;2023-03-14T06:33:47;2.30;;;1.00;;
66085;SDS011;52868;49.758;9.586;2023-03-14T06:36:12;3.72;;;1.05;;
66085;SDS011;52868;49.758;9.586;2023-03-14T06:38:38;3.17;;;1.23;;
66085;SDS011;52868;49.758;9.586;2023-03-14T06:41:04;7.78;;;1.63;;
66085;SDS011;52868;49.758;9.586;2023-03-14T06:43:30;4.78;;;1.20;;
66085;SDS011;52868;49.758;9.586;2023-03-14T06:45:56;8.70;;;1.75;;
66085;SDS011;52868;49.758;9.586;2023-03-14T06:48:22;7.32;;;1.67;;
66085;SDS011;52868;49.758;9.586;2023-03-14T06:50:48;6.65;;;2.10;;
66085;SDS011;52868;49.758;9.586;2023-03-14T06:53:16;8.25;;;1.80;;
66085;SDS011;52868;49.758;9.586;2023-03-14T06:55:42;12.75;;;3.47;;
66085;SDS011;52868;49.758;9.586;2023-03-14T06:58:08;8.57;;;2.58;;
66085;SDS011;52868;49.758;9.586;2023-03-14T07:00:34;5.78;;;1.65;;
66085;SDS011;52868;49.758;9.586;2023-03-14T07:03:00;3.63;;;1.25;;
66085;SDS011;52868;49.758;9.586;2023-03-14T07:05:26;9.05;;;0.80;;
66085;SDS011;52868;49.758;9.586;2023-03-14T07:07:51;2.75;;;0.80;;
66085;SDS011;52868;49.758;9.586;2023-03-14T07:10:17;1.50;;;0.80;;
66085;SDS011;52868;49.758;9.586;2023-03-14T07:12:43;3.05;;;0.80;;
66085;SDS011;52868;49.758;9.586;2023-03-14T07:15:09;0.68;;;0.60;;
66085;SDS011;52868;49.758;9.586;2023-03-14T07:17:34;4.40;;;0.85;;
66085;SDS011;52868;49.758;9.586;2023-03-14T07:20:00;3.53;;;0.60;;
66085;SDS011;52868;49.758;9.586;2023-03-14T07:22:26;2.55;;;0.50;;
66085;SDS011;52868;49.758;9.586;2023-03-14T07:24:51;2.97;;;0.70;;
66085;SDS011;52868;49.758;9.586;2023-03-14T07:27:17;0.65;;;0.65;;
66085;SDS011;52868;49.758;9.586;2023-03-14T07:29:43;1.92;;;0.82;;
66085;SDS011;52868;49.758;9.586;2023-03-14T07:32:08;2.03;;;0.60;;
66085;SDS011;52868;49.758;9.586;2023-03-14T07:34:34;1.08;;;0.80;;
66085;SDS011;52868;49.758;9.586;2023-03-14T07:37:00;0.60;;;0.60;;
66085;SDS011;52868;49.758;9.586;2023-03-14T07:39:25;0.68;;;0.65;;
66085;SDS011;52868;49.758;9.586;2023-03-14T07:41:51;1.65;;;0.77;;
66085;SDS011;52868;49.758;9.586;2023-03-14T07:44:16;3.05;;;0.90;;
66085;SDS011;52868;49.758;9.586;2023-03-14T07:46:42;3.90;;;0.88;;
66085;SDS011;52868;49.758;9.586;2023-03-14T07:49:08;5.63;;;0.73;;
66085;SDS011;52868;49.758;9.586;2023-03-14T07:51:33;1.67;;;0.80;;
66085;SDS011;52868;49.758;9.586;2023-03-14T07:53:59;13.43;;;1.33;;
66085;SDS011;52868;49.758;9.586;2023-03-14T07:56:25;4.90;;;0.88;;
66085;SDS011;52868;49.758;9.586;2023-03-14T07:58:50;1.25;;;0.85;;
66085;SDS011;52868;49.758;9.586;2023-03-14T08:01:16;1.98;;;1.00;;
66085;SDS011;52868;49.758;9.586;2023-03-14T08:03:41;0.95;;;0.68;;
66085;SDS011;52868;49.758;9.586;2023-03-14T08:06:07;4.25;;;0.90;;
66085;SDS011;52868;49.758;9.586;2023-03-14T08:08:33;1.27;;;0.88;;
66085;SDS011;52868;49.758;9.586;2023-03-14T08:11:02;1.52;;;0.73;;
66085;SDS011;52868;49.758;9.586;2023-03-14T08:13:29;8.10;;;1.00;;
66085;SDS011;52868;49.758;9.586;2023-03-14T08:15:55;3.63;;;0.73;;
66085;SDS011;52868;49.758;9.586;2023-03-14T08:18:20;1.25;;;0.90;;
66085;SDS011;52868;49.758;9.586;2023-03-14T08:20:46;3.45;;;0.93;;
66085;SDS011;52868;49.758;9.586;2023-03-14T08:23:12;1.63;;;1.52;;
66085;SDS011;52868;49.758;9.586;2023-03-14T08:25:37;2.40;;;0.90;;
66085;SDS011;52868;49.758;9.586;2023-03-14T08:28:03;3.78;;;0.70;;
66085;SDS011;52868;49.758;9.586;2023-03-14T08:30:29;3.50;;;0.88;;
66085;SDS011;52868;49.758;9.586;2023-03-14T08:32:58;0.52;;;0.52;;
66085;SDS011;52868;49.758;9.586;2023-03-14T08:35:24;1.83;;;0.88;;
66085;SDS011;52868;49.758;9.586;2023-03-14T08:37:50;0.57;;;0.57;;
66085;SDS011;52868;49.758;9.586;2023-03-14T08:40:17;0.80;;;0.65;;
66085;SDS011;52868;49.758;9.586;2023-03-14T08:42:43;0.60;;;0.60;;
66085;SDS011;52868;49.758;9.586;2023-03-14T08:45:10;0.90;;;0.70;;
66085;SDS011;52868;49.758;9.586;2023-03-14T08:47:38;0.63;;;0.50;;
66085;SDS011;52868;49.758;9.586;2023-03-14T08:50:04;2.67;;;0.60;;
66085;SDS011;52868;49.758;9.586;2023-03-14T08:52:31;0.90;;;0.70;;
66085;SDS011;52868;49.758;9.586;2023-03-14T08:54:57;1.75;;;0.60;;
66085;SDS011;52868;49.758;9.586;2023-03-14T08:57:22;1.77;;;0.50;;
66085;SDS011;52868;49.758;9.586;2023-03-14T08:59:52;0.40;;;0.40;;
66085;SDS011;52868;49.758;9.586;2023-03-14T09:02:20;0.60;;;0.60;;
66085;SDS011;52868;49.758;9.586;2023-03-14T09:04:45;0.75;;;0.70;;
66085;SDS011;52868;49.758;9.586;2023-03-14T09:07:11;2.05;;;0.90;;
66085;SDS011;52868;49.758;9.586;2023-03-14T09:09:36;1.00;;;0.60;;
66085;SDS011;52868;49.758;9.586;2023-03-14T09:12:03;0.88;;;0.60;;
66085;SDS011;52868;49.758;9.586;2023-03-14T09:14:30;1.60;;;0.70;;
66085;SDS011;52868;49.758;9.586;2023-03-14T09:16:56;3.13;;;0.70;;
66085;SDS011;52868;49.758;9.586;2023-03-14T09:19:22;2.45;;;0.95;;
66085;SDS011;52868;49.758;9.586;2023-03-14T09:21:48;0.73;;;0.70;;
66085;SDS011;52868;49.758;9.586;2023-03-14T09:24:13;1.05;;;0.82;;
66085;SDS011;52868;49.758;9.586;2023-03-14T09:26:40;2.45;;;0.60;;
66085;SDS011;52868;49.758;9.586;2023-03-14T09:29:07;3.13;;;0.95;;
66085;SDS011;52868;49.758;9.586;2023-03-14T09:31:33;1.20;;;0.85;;
66085;SDS011;52868;49.758;9.586;2023-03-14T09:33:58;0.82;;;0.73;;
66085;SDS011;52868;49.758;9.586;2023-03-14T09:36:24;9.90;;;1.85;;
66085;SDS011;52868;49.758;9.586;2023-03-14T09:38:49;1.58;;;0.80;;
66085;SDS011;52868;49.758;9.586;2023-03-14T09:41:16;0.70;;;0.70;;
66085;SDS011;52868;49.758;9.586;2023-03-14T09:43:53;0.70;;;0.70;;
66085;SDS011;52868;49.758;9.586;2023-03-14T09:46:39;3.60;;;0.68;;
66085;SDS011;52868;49.758;9.586;2023-03-14T09:49:11;1.42;;;0.70;;
66085;SDS011;52868;49.758;9.586;2023-03-14T09:51:47;0.70;;;0.70;;
66085;SDS011;52868;49.758;9.586;2023-03-14T09:57:04;3.20;;;0.50;;
66085;SDS011;52868;49.758;9.586;2023-03-14T09:59:31;1.33;;;0.80;;
66085;SDS011;52868;49.758;9.586;2023-03-14T10:02:00;6.90;;;1.07;;
66085;SDS011;52868;49.758;9.586;2023-03-14T10:04:35;1.88;;;0.63;;
66085;SDS011;52868;49.758;9.586;2023-03-14T10:07:07;0.60;;;0.60;;
66085;SDS011;52868;49.758;9.586;2023-03-14T10:09:38;4.88;;;0.65;;
66085;SDS011;52868;49.758;9.586;2023-03-14T10:12:10;0.50;;;0.50;;
66085;SDS011;52868;49.758;9.586;2023-03-14T10:14:37;0.68;;;0.68;;
66085;SDS011;52868;49.758;9.586;2023-03-14T10:17:11;1.88;;;0.82;;
66085;SDS011;52868;49.758;9.586;2023-03-14T10:22:31;0.82;;;0.60;;
66085;SDS011;52868;49.758;9.586;2023-03-14T10:25:02;0.85;;;0.70;;
66085;SDS011;52868;49.758;9.586;2023-03-14T10:27:32;1.30;;;0.57;;
66085;SDS011;52868;49.758;9.586;2023-03-14T10:30:00;0.60;;;0.60;;
66085;SDS011;52868;49.758;9.586;2023-03-14T10:35:17;0.50;;;0.50;;
66085;SDS011;52868;49.758;9.586;2023-03-14T10:40:28;1.75;;;0.90;;
66085;SDS011;52868;49.758;9.586;2023-03-14T10:42:57;2.88;;;1.02;;
66085;SDS011;52868;49.758;9.586;2023-03-14T10:48:05;2.65;;;0.88;;
66085;SDS011;52868;49.758;9.586;2023-03-14T10:53:32;1.95;;;1.05;;
66085;SDS011;52868;49.758;9.586;2023-03-14T10:56:04;1.40;;;1.05;;
66085;SDS011;52868;49.758;9.586;2023-03-14T10:58:31;0.77;;;0.70;;
66085;SDS011;52868;49.758;9.586;2023-03-14T11:09:37;0.93;;;0.85;;
66085;SDS011;52868;49.758;9.586;2023-03-14T11:15:08;0.80;;;0.80;;
66085;SDS011;52868;49.758;9.586;2023-03-14T11:23:22;1.25;;;0.90;;
66085;SDS011;52868;49.758;9.586;2023-03-14T11:26:01;0.80;;;0.80;;
66085;SDS011;52868;49.758;9.586;2023-03-14T11:28:39;1.30;;;0.70;;
66085;SDS011;52868;49.758;9.586;2023-03-14T11:33:47;3.40;;;0.77;;
66085;SDS011;52868;49.758;9.586;2023-03-14T11:36:16;0.60;;;0.60;;
66085;SDS011;52868;49.758;9.586;2023-03-14T11:38:56;0.70;;;0.70;;
66085;SDS011;52868;49.758;9.586;2023-03-14T11:41:35;1.08;;;0.77;;
66085;SDS011;52868;49.758;9.586;2023-03-14T11:44:11;0.88;;;0.60;;
66085;SDS011;52868;49.758;9.586;2023-03-14T11:47:03;0.60;;;0.60;;
66085;SDS011;52868;49.758;9.586;2023-03-14T11:49:43;2.17;;;0.63;;
66085;SDS011;52868;49.758;9.586;2023-03-14T11:52:55;1.00;;;0.60;;
66085;SDS011;52868;49.758;9.586;2023-03-14T11:55:22;0.55;;;0.55;;
66085;SDS011;52868;49.758;9.586;2023-03-14T11:57:53;0.90;;;0.60;;
66085;SDS011;52868;49.758;9.586;2023-03-14T12:00:27;1.60;;;0.60;;
66085;SDS011;52868;49.758;9.586;2023-03-14T12:08:39;0.90;;;0.50;;
66085;SDS011;52868;49.758;9.586;2023-03-14T12:13:50;0.50;;;0.50;;
66085;SDS011;52868;49.758;9.586;2023-03-14T12:18:50;0.52;;;0.52;;
66085;SDS011;52868;49.758;9.586;2023-03-14T12:21:16;0.50;;;0.50;;
66085;SDS011;52868;49.758;9.586;2023-03-14T12:23:44;0.50;;;0.50;;
66085;SDS011;52868;49.758;9.586;2023-03-14T12:26:24;0.50;;;0.50;;
66085;SDS011;52868;49.758;9.586;2023-03-14T12:31:46;0.65;;;0.50;;
66085;SDS011;52868;49.758;9.586;2023-03-14T12:34:41;0.73;;;0.60;;
66085;SDS011;52868;49.758;9.586;2023-03-14T12:42:58;0.50;;;0.50;;
66085;SDS011;52868;49.758;9.586;2023-03-14T12:45:35;0.40;;;0.40;;
66085;SDS011;52868;49.758;9.586;2023-03-14T12:50:35;0.60;;;0.60;;
66085;SDS011;52868;49.758;9.586;2023-03-14T12:56:11;1.02;;;0.93;;
66085;SDS011;52868;49.758;9.586;2023-03-14T12:58:54;0.65;;;0.65;;
66085;SDS011;52868;49.758;9.586;2023-03-14T13:01:23;0.60;;;0.60;;
66085;SDS011;52868;49.758;9.586;2023-03-14T13:03:52;1.80;;;0.80;;
66085;SDS011;52868;49.758;9.586;2023-03-14T13:11:54;4.65;;;0.90;;
66085;SDS011;52868;49.758;9.586;2023-03-14T13:14:22;0.50;;;0.50;;
66085;SDS011;52868;49.758;9.586;2023-03-14T13:16:48;0.50;;;0.50;;
66085;SDS011;52868;49.758;9.586;2023-03-14T13:19:17;0.32;;;0.32;;
66085;SDS011;52868;49.758;9.586;2023-03-14T13:21:46;0.98;;;0.57;;
66085;SDS011;52868;49.758;9.586;2023-03-14T13:24:23;0.52;;;0.47;;
66085;SDS011;52868;49.758;9.586;2023-03-14T13:26:51;0.57;;;0.50;;
66085;SDS011;52868;49.758;9.586;2023-03-14T13:32:01;1.27;;;0.80;;
66085;SDS011;52868;49.758;9.586;2023-03-14T13:34:41;3.38;;;1.25;;
66085;SDS011;52868;49.758;9.586;2023-03-14T13:37:14;2.30;;;1.13;;
66085;SDS011;52868;49.758;9.586;2023-03-14T13:39:51;0.60;;;0.60;;
66085;SDS011;52868;49.758;9.586;2023-03-14T13:42:24;0.47;;;0.47;;
66085;SDS011;52868;49.758;9.586;2023-03-14T13:44:56;0.60;;;0.60;;
66085;SDS011;52868;49.758;9.586;2023-03-14T13:47:23;0.65;;;0.65;;
66085;SDS011;52868;49.758;9.586;2023-03-14T13:49:50;0.50;;;0.50;;
66085;SDS011;52868;49.758;9.586;2023-03-14T13:54:56;0.60;;;0.60;;
66085;SDS011;52868;49.758;9.586;2023-03-14T13:57:24;1.48;;;0.90;;
66085;SDS011;52868;49.758;9.586;2023-03-14T14:00:00;11.52;;;4.82;;
66085;SDS011;52868;49.758;9.586;2023-03-14T14:02:31;5.88;;;2.85;;
66085;SDS011;52868;49.758;9.586;2023-03-14T14:04:58;3.75;;;1.83;;
66085;SDS011;52868;49.758;9.586;2023-03-14T14:07:25;5.57;;;1.67;;
66085;SDS011;52868;49.758;9.586;2023-03-14T14:09:51;2.13;;;1.08;;
66085;SDS011;52868;49.758;9.586;2023-03-14T14:17:23;1.13;;;0.90;;
66085;SDS011;52868;49.758;9.586;2023-03-14T14:19:58;1.00;;;0.80;;
66085;SDS011;52868;49.758;9.586;2023-03-14T14:22:25;2.35;;;0.60;;
66085;SDS011;52868;49.758;9.586;2023-03-14T14:24:52;0.60;;;0.55;;
66085;SDS011;52868;49.758;9.586;2023-03-14T14:27:27;1.35;;;1.00;;
66085;SDS011;52868;49.758;9.586;2023-03-14T14:30:01;4.07;;;1.63;;
66085;SDS011;52868;49.758;9.586;2023-03-14T14:32:49;1.15;;;1.00;;
66085;SDS011;52868;49.758;9.586;2023-03-14T14:35:32;1.23;;;0.75;;
66085;SDS011;52868;49.758;9.586;2023-03-14T14:38:00;1.20;;;1.10;;
66085;SDS011;52868;49.758;9.586;2023-03-14T14:40:28;2.42;;;1.60;;
66085;SDS011;52868;49.758;9.586;2023-03-14T14:42:55;2.47;;;1.13;;
66085;SDS011;52868;49.758;9.586;2023-03-14T14:45:28;1.02;;;0.93;;
66085;SDS011;52868;49.758;9.586;2023-03-14T14:53:00;1.45;;;0.80;;
66085;SDS011;52868;49.758;9.586;2023-03-14T14:55:45;0.65;;;0.65;;
66085;SDS011;52868;49.758;9.586;2023-03-14T14:58:26;0.75;;;0.70;;
66085;SDS011;52868;49.758;9.586;2023-03-14T15:00:54;0.63;;;0.63;;
66085;SDS011;52868;49.758;9.586;2023-03-14T15:03:28;1.27;;;0.90;;
66085;SDS011;52868;49.758;9.586;2023-03-14T15:05:54;1.25;;;0.68;;
66085;SDS011;52868;49.758;9.586;2023-03-14T15:08:21;5.35;;;0.77;;
66085;SDS011;52868;49.758;9.586;2023-03-14T15:10:47;0.40;;;0.40;;
66085;SDS011;52868;49.758;9.586;2023-03-14T15:13:12;0.55;;;0.55;;
66085;SDS011;52868;49.758;9.586;2023-03-14T15:15:38;6.88;;;2.03;;
66085;SDS011;52868;49.758;9.586;2023-03-14T15:18:14;1.35;;;0.77;;
66085;SDS011;52868;49.758;9.586;2023-03-14T15:20:43;0.90;;;0.75;;
66085;SDS011;52868;49.758;9.586;2023-03-14T15:23:10;0.70;;;0.70;;
66085;SDS011;52868;49.758;9.586;2023-03-14T15:25:37;0.77;;;0.77;;
66085;SDS011;52868;49.758;9.586;2023-03-14T15:28:08;1.05;;;1.00;;
66085;SDS011;52868;49.758;9.586;2023-03-14T15:30:43;1.08;;;0.90;;
66085;SDS011;52868;49.758;9.586;2023-03-14T15:33:09;1.80;;;1.08;;
66085;SDS011;52868;49.758;9.586;2023-03-14T15:35:37;0.77;;;0.77;;
66085;SDS011;52868;49.758;9.586;2023-03-14T15:38:03;1.88;;;1.20;;
66085;SDS011;52868;49.758;9.586;2023-03-14T15:40:29;1.52;;;1.00;;
66085;SDS011;52868;49.758;9.586;2023-03-14T15:42:55;1.65;;;0.90;;
66085;SDS011;52868;49.758;9.586;2023-03-14T15:45:21;2.72;;;1.10;;
66085;SDS011;52868;49.758;9.586;2023-03-14T15:47:46;2.03;;;1.00;;
66085;SDS011;52868;49.758;9.586;2023-03-14T15:50:12;0.85;;;0.80;;
66085;SDS011;52868;49.758;9.586;2023-03-14T15:52:40;2.58;;;1.67;;
66085;SDS011;52868;49.758;9.586;2023-03-14T15:55:06;1.10;;;1.00;;
66085;SDS011;52868;49.758;9.586;2023-03-14T15:57:32;2.25;;;1.10;;
66085;SDS011;52868;49.758;9.586;2023-03-14T15:59:58;1.48;;;0.85;;
66085;SDS011;52868;49.758;9.586;2023-03-14T16:02:23;1.33;;;0.90;;
66085;SDS011;52868;49.758;9.586;2023-03-14T16:04:49;2.70;;;0.70;;
66085;SDS011;52868;49.758;9.586;2023-03-14T16:07:14;1.65;;;0.90;;
66085;SDS011;52868;49.758;9.586;2023-03-14T16:09:40;1.65;;;0.82;;
66085;SDS011;52868;49.758;9.586;2023-03-14T16:12:05;0.63;;;0.60;;
66085;SDS011;52868;49.758;9.586;2023-03-14T16:14:32;1.85;;;1.00;;
66085;SDS011;52868;49.758;9.586;2023-03-14T16:16:58;1.50;;;1.08;;
66085;SDS011;52868;49.758;9.586;2023-03-14T16:19:27;1.15;;;0.55;;
66085;SDS011;52868;49.758;9.586;2023-03-14T16:21:53;0.77;;;0.77;;
66085;SDS011;52868;49.758;9.586;2023-03-14T16:24:19;0.80;;;0.80;;
66085;SDS011;52868;49.758;9.586;2023-03-14T16:26:44;1.17;;;0.90;;
66085;SDS011;52868;49.758;9.586;2023-03-14T16:29:11;3.53;;;1.10;;
66085;SDS011;52868;49.758;9.586;2023-03-14T16:31:37;0.60;;;0.60;;
66085;SDS011;52868;49.758;9.586;2023-03-14T16:34:09;0.88;;;0.75;;
66085;SDS011;52868;49.758;9.586;2023-03-14T16:36:35;2.33;;;0.97;;
66085;SDS011;52868;49.758;9.586;2023-03-14T16:39:01;17.13;;;8.00;;
66085;SDS011;52868;49.758;9.586;2023-03-14T16:41:27;49.40;;;16.50;;
66085;SDS011;52868;49.758;9.586;2023-03-14T16:43:56;34.53;;;13.73;;
66085;SDS011;52868;49.758;9.586;2023-03-14T16:46:22;14.68;;;6.97;;
66085;SDS011;52868;49.758;9.586;2023-03-14T16:48:49;10.27;;;3.92;;
66085;SDS011;52868;49.758;9.586;2023-03-14T16:51:15;11.48;;;4.68;;
66085;SDS011;52868;49.758;9.586;2023-03-14T16:53:41;5.30;;;2.83;;